createdAt,value
2023-04-17T00:00:06.967Z,51.215927
2023-04-17T00:01:06.961Z,51.216038
2023-04-17T00:02:07.097Z,51.216030
2023-04-17T00:03:07.188Z,51.215828
2023-04-17T00:04:07.063Z,51.215866
2023-04-17T00:05:07.020Z,51.216022
2023-04-17T00:06:06.931Z,51.215977
2023-04-17T00:07:06.937Z,51.215862
2023-04-17T00:08:06.922Z,51.215912
2023-04-17T00:09:06.962Z,51.215855
2023-04-17T00:10:06.931Z,51.215645
2023-04-17T00:11:08.350Z,51.215687
2023-04-17T00:12:07.888Z,51.215591
2023-04-17T00:13:06.877Z,51.215351
2023-04-17T00:14:06.877Z,51.215534
2023-04-17T00:15:06.880Z,51.215691
2023-04-17T00:16:06.880Z,51.215862
2023-04-17T00:17:06.854Z,51.216011
2023-04-17T00:18:06.878Z,51.216038
2023-04-17T00:19:06.841Z,51.215977
2023-04-17T00:20:06.858Z,51.215946
2023-04-17T00:21:06.831Z,51.215832
2023-04-17T00:22:06.854Z,51.215874
2023-04-17T00:23:06.812Z,51.215981
2023-04-17T00:24:06.813Z,51.216087
2023-04-17T00:25:06.816Z,51.216209
2023-04-17T00:26:06.789Z,51.216251
2023-04-17T00:27:07.821Z,51.216171
2023-04-17T00:28:06.783Z,51.216114
2023-04-17T00:29:06.791Z,51.216122
2023-04-17T00:30:06.762Z,51.216198
2023-04-17T00:31:06.772Z,51.216095
2023-04-17T00:32:06.852Z,51.216160
2023-04-17T00:33:06.784Z,51.216129
2023-04-17T00:34:06.761Z,51.216183
2023-04-17T00:35:06.730Z,51.216316
2023-04-17T00:36:06.713Z,51.216221
2023-04-17T00:37:06.741Z,51.216179
2023-04-17T00:38:06.729Z,51.216076
2023-04-17T00:39:06.717Z,51.215961
2023-04-17T00:40:06.705Z,51.215858
2023-04-17T00:41:06.678Z,51.215950
2023-04-17T00:42:06.895Z,51.215981
2023-04-17T00:43:06.696Z,51.215958
2023-04-17T00:44:06.678Z,51.216015
2023-04-17T00:45:06.666Z,51.215916
2023-04-17T00:46:06.702Z,51.216015
2023-04-17T00:47:06.658Z,51.216064
2023-04-17T00:48:06.726Z,51.216042
2023-04-17T00:49:06.641Z,51.215988
2023-04-17T00:50:06.631Z,51.215992
2023-04-17T00:51:06.626Z,51.216106
2023-04-17T00:52:06.642Z,51.216049
2023-04-17T00:53:06.616Z,51.216057
2023-04-17T00:54:06.610Z,51.216061
2023-04-17T00:55:06.595Z,51.216042
2023-04-17T00:56:06.602Z,51.216171
2023-04-17T00:57:06.584Z,51.216114
2023-04-17T00:58:06.576Z,51.216087
2023-04-17T00:59:06.633Z,51.216118
2023-04-17T01:00:06.562Z,51.216019
2023-04-17T01:01:06.602Z,51.216099
2023-04-17T01:02:06.573Z,51.216133
2023-04-17T01:03:06.674Z,51.216091
2023-04-17T01:04:06.596Z,51.216103
2023-04-17T01:05:06.549Z,51.216084
2023-04-17T01:06:06.517Z,51.216045
2023-04-17T01:07:06.510Z,51.216030
2023-04-17T01:08:06.510Z,51.216084
2023-04-17T01:09:06.493Z,51.216087
2023-04-17T01:10:06.504Z,51.216091
2023-04-17T01:11:06.476Z,51.216114
2023-04-17T01:12:06.480Z,51.216133
2023-04-17T01:13:06.468Z,51.216084
2023-04-17T01:14:06.474Z,51.216038
2023-04-17T01:15:06.456Z,51.216099
2023-04-17T01:16:06.488Z,51.216118
2023-04-17T01:17:06.562Z,51.216099
2023-04-17T01:18:06.496Z,51.216072
2023-04-17T01:19:06.423Z,51.216095
2023-04-17T01:20:06.429Z,51.216164
2023-04-17T01:21:06.439Z,51.216148
2023-04-17T01:22:06.438Z,51.216148
2023-04-17T01:23:06.477Z,51.216118
2023-04-17T01:24:06.467Z,51.216125
2023-04-17T01:25:06.394Z,51.216091
2023-04-17T01:26:06.386Z,51.216099
2023-04-17T01:27:06.377Z,51.216164
2023-04-17T01:28:06.372Z,51.216122
2023-04-17T01:29:06.359Z,51.216160
2023-04-17T01:30:06.516Z,51.216072
2023-04-17T01:31:06.436Z,51.216137
2023-04-17T01:32:06.336Z,51.216061
2023-04-17T01:33:06.602Z,51.216087
2023-04-17T01:34:06.330Z,51.216106
2023-04-17T01:35:06.377Z,51.216183
2023-04-17T01:36:06.323Z,51.216145
2023-04-17T01:37:06.318Z,51.216084
2023-04-17T01:38:06.296Z,51.216099
2023-04-17T01:39:06.289Z,51.216110
2023-04-17T01:40:06.299Z,51.216011
2023-04-17T01:41:06.321Z,51.216045
2023-04-17T01:42:06.309Z,51.216122
2023-04-17T01:43:06.282Z,51.216175
2023-04-17T01:44:06.266Z,51.216194
2023-04-17T01:45:06.286Z,51.216034
2023-04-17T01:46:06.293Z,51.216042
2023-04-17T01:47:06.240Z,51.216003
2023-04-17T01:48:06.257Z,51.216049
2023-04-17T01:49:06.222Z,51.215931
2023-04-17T01:50:06.227Z,51.216076
2023-04-17T01:51:06.206Z,51.216114
2023-04-17T01:52:06.213Z,51.216091
2023-04-17T01:53:06.191Z,51.216087
2023-04-17T01:54:06.195Z,51.216099
2023-04-17T01:55:06.210Z,51.216103
2023-04-17T01:56:06.187Z,51.216053
2023-04-17T01:57:06.175Z,51.216087
2023-04-17T01:58:06.169Z,51.216000
2023-04-17T01:59:06.199Z,51.216061
2023-04-17T02:00:06.182Z,51.216049
2023-04-17T02:01:06.143Z,51.216068
2023-04-17T02:02:06.277Z,51.216084
2023-04-17T02:03:06.233Z,51.216103
2023-04-17T02:04:06.250Z,51.216129
2023-04-17T02:05:06.138Z,51.216133
2023-04-17T02:06:06.107Z,51.216133
2023-04-17T02:07:06.106Z,51.216167
2023-04-17T02:08:06.090Z,51.216064
2023-04-17T02:09:06.098Z,51.216053
2023-04-17T02:10:07.189Z,51.216038
2023-04-17T02:11:06.070Z,51.215878
2023-04-17T02:12:06.071Z,51.215954
2023-04-17T02:13:06.067Z,51.216103
2023-04-17T02:14:06.058Z,51.216084
2023-04-17T02:15:06.047Z,51.216026
2023-04-17T02:16:06.140Z,51.216133
2023-04-17T02:17:06.082Z,51.216152
2023-04-17T02:18:06.156Z,51.215580
2023-04-17T02:19:06.015Z,51.215599
2023-04-17T02:20:06.027Z,51.215908
2023-04-17T02:21:05.994Z,51.215942
2023-04-17T02:22:06.284Z,51.215942
2023-04-17T02:23:06.004Z,51.215740
2023-04-17T02:24:05.985Z,51.215633
2023-04-17T02:25:05.975Z,51.215630
2023-04-17T02:26:05.976Z,51.215668
2023-04-17T02:27:06.008Z,51.216103
2023-04-17T02:28:05.983Z,51.216087
2023-04-17T02:29:05.958Z,51.216137
2023-04-17T02:30:05.938Z,51.216110
2023-04-17T02:31:05.956Z,51.216084
2023-04-17T02:32:06.926Z,51.216152
2023-04-17T02:33:05.982Z,51.216099
2023-04-17T02:34:05.929Z,51.216003
2023-04-17T02:35:05.920Z,51.215855
2023-04-17T02:36:05.900Z,51.216061
2023-04-17T02:37:05.915Z,51.216080
2023-04-17T02:38:05.896Z,51.216110
2023-04-17T02:39:05.893Z,51.215851
2023-04-17T02:40:05.870Z,51.215794
2023-04-17T02:41:05.864Z,51.215870
2023-04-17T02:42:05.878Z,51.215908
2023-04-17T02:43:05.874Z,51.215931
2023-04-17T02:44:05.873Z,51.215878
2023-04-17T02:45:05.882Z,51.215851
2023-04-17T02:46:05.831Z,51.215996
2023-04-17T02:47:05.858Z,51.215881
2023-04-17T02:48:05.830Z,51.215855
2023-04-17T02:49:05.843Z,51.215759
2023-04-17T02:50:05.815Z,51.215893
2023-04-17T02:51:05.828Z,51.216045
2023-04-17T02:52:05.808Z,51.216164
2023-04-17T02:53:05.809Z,51.216213
2023-04-17T02:54:05.773Z,51.216171
2023-04-17T02:55:05.779Z,51.216061
2023-04-17T02:56:05.766Z,51.216141
2023-04-17T02:57:05.778Z,51.216171
2023-04-17T02:58:05.750Z,51.216122
2023-04-17T02:59:05.747Z,51.216152
2023-04-17T03:00:05.774Z,51.216064
2023-04-17T03:01:05.746Z,51.216103
2023-04-17T03:02:05.778Z,51.216110
2023-04-17T03:03:05.786Z,51.216152
2023-04-17T03:04:05.913Z,51.216080
2023-04-17T03:05:05.755Z,51.215927
2023-04-17T03:06:05.695Z,51.215946
2023-04-17T03:07:05.701Z,51.215942
2023-04-17T03:08:05.683Z,51.216038
2023-04-17T03:09:05.671Z,51.216110
2023-04-17T03:10:05.675Z,51.216122
2023-04-17T03:11:05.665Z,51.216183
2023-04-17T03:12:05.684Z,51.216167
2023-04-17T03:13:05.657Z,51.216030
2023-04-17T03:14:05.637Z,51.216114
2023-04-17T03:15:07.623Z,51.216114
2023-04-17T03:16:05.675Z,51.215992
2023-04-17T03:17:05.620Z,51.215946
2023-04-17T03:18:05.767Z,51.215588
2023-04-17T03:19:05.619Z,51.215710
2023-04-17T03:20:05.600Z,51.215813
2023-04-17T03:21:05.601Z,51.215881
2023-04-17T03:22:05.632Z,51.215900
2023-04-17T03:23:05.587Z,51.215984
2023-04-17T03:24:05.580Z,51.216167
2023-04-17T03:25:05.568Z,51.216438
2023-04-17T03:26:05.591Z,51.216518
2023-04-17T03:27:05.561Z,51.216564
2023-04-17T03:28:05.558Z,51.216312
2023-04-17T03:29:05.554Z,51.216183
2023-04-17T03:30:05.541Z,51.216152
2023-04-17T03:31:05.543Z,51.216122
2023-04-17T03:32:05.613Z,51.216209
2023-04-17T03:33:05.597Z,51.216274
2023-04-17T03:34:05.510Z,51.216274
2023-04-17T03:35:05.520Z,51.216278
2023-04-17T03:36:05.509Z,51.216312
2023-04-17T03:37:05.512Z,51.216217
2023-04-17T03:38:05.514Z,51.216232
2023-04-17T03:39:05.497Z,51.216293
2023-04-17T03:40:05.489Z,51.216202
2023-04-17T03:41:05.471Z,51.216274
2023-04-17T03:42:05.493Z,51.216209
2023-04-17T03:43:05.475Z,51.216206
2023-04-17T03:44:05.451Z,51.216084
2023-04-17T03:45:05.485Z,51.216045
2023-04-17T03:46:05.463Z,51.215839
2023-04-17T03:47:05.444Z,51.215755
2023-04-17T03:48:05.504Z,51.215851
2023-04-17T03:49:05.426Z,51.216045
2023-04-17T03:50:05.411Z,51.216270
2023-04-17T03:51:05.393Z,51.216057
2023-04-17T03:52:05.390Z,51.216125
2023-04-17T03:53:05.404Z,51.216431
2023-04-17T03:54:05.379Z,51.216587
2023-04-17T03:55:05.373Z,51.216721
2023-04-17T03:56:05.365Z,51.216976
2023-04-17T03:57:05.355Z,51.217014
2023-04-17T03:58:05.340Z,51.216545
2023-04-17T03:59:05.373Z,51.216213
2023-04-17T04:00:05.332Z,51.216015
2023-04-17T04:01:05.337Z,51.216183
2023-04-17T04:02:05.429Z,51.216400
2023-04-17T04:03:05.549Z,51.216320
2023-04-17T04:04:05.406Z,51.216362
2023-04-17T04:05:05.331Z,51.216320
2023-04-17T04:06:05.312Z,51.216228
2023-04-17T04:07:05.305Z,51.216583
2023-04-17T04:08:05.292Z,51.216827
2023-04-17T04:09:05.287Z,51.216579
2023-04-17T04:10:05.367Z,51.216454
2023-04-17T04:11:05.258Z,51.216179
2023-04-17T04:12:05.248Z,51.215946
2023-04-17T04:13:05.235Z,51.216022
2023-04-17T04:14:05.246Z,51.216080
2023-04-17T04:15:05.216Z,51.216057
2023-04-17T04:16:06.236Z,51.215874
2023-04-17T04:17:05.224Z,51.215698
2023-04-17T04:18:05.230Z,51.215919
2023-04-17T04:19:05.191Z,51.215969
2023-04-17T04:20:05.255Z,51.215855
2023-04-17T04:21:05.214Z,51.216015
2023-04-17T04:22:06.873Z,51.215897
2023-04-17T04:23:06.169Z,51.216057
2023-04-17T04:24:05.167Z,51.215981
2023-04-17T04:25:05.164Z,51.216072
2023-04-17T04:26:05.151Z,51.216110
2023-04-17T04:27:05.157Z,51.216049
2023-04-17T04:28:05.134Z,51.216068
2023-04-17T04:29:05.132Z,51.216045
2023-04-17T04:30:06.136Z,51.215973
2023-04-17T04:31:05.146Z,51.216049
2023-04-17T04:32:05.113Z,51.216034
2023-04-17T04:33:05.100Z,51.216042
2023-04-17T04:34:05.102Z,51.216015
2023-04-17T04:35:05.085Z,51.216068
2023-04-17T04:36:05.076Z,51.216137
2023-04-17T04:37:05.086Z,51.216057
2023-04-17T04:38:05.168Z,51.216129
2023-04-17T04:39:05.094Z,51.216164
2023-04-17T04:40:05.060Z,51.216236
2023-04-17T04:41:05.044Z,51.216179
2023-04-17T04:42:05.036Z,51.216351
2023-04-17T04:43:05.028Z,51.215786
2023-04-17T04:44:05.094Z,51.215977
2023-04-17T04:45:05.025Z,51.216015
2023-04-17T04:46:05.917Z,51.215775
2023-04-17T04:47:05.180Z,51.216122
2023-04-17T04:48:05.031Z,51.215981
2023-04-17T04:49:05.079Z,51.216179
2023-04-17T04:50:04.995Z,51.216206
2023-04-17T04:51:04.994Z,51.216328
2023-04-17T04:52:04.984Z,51.216137
2023-04-17T04:53:04.969Z,51.216022
2023-04-17T04:54:04.982Z,51.216045
2023-04-17T04:55:04.953Z,51.215996
2023-04-17T04:56:04.955Z,51.216129
2023-04-17T04:57:04.946Z,51.216194
2023-04-17T04:58:04.928Z,51.215973
2023-04-17T04:59:04.930Z,51.216000
2023-04-17T05:00:04.944Z,51.215858
2023-04-17T05:01:04.919Z,51.216045
2023-04-17T05:02:04.985Z,51.215996
2023-04-17T05:03:05.351Z,51.216072
2023-04-17T05:04:05.088Z,51.216015
2023-04-17T05:05:04.966Z,51.215954
2023-04-17T05:06:04.875Z,51.215984
2023-04-17T05:07:04.903Z,51.216045
2023-04-17T05:08:04.879Z,51.216038
2023-04-17T05:09:04.851Z,51.216053
2023-04-17T05:10:04.848Z,51.216053
2023-04-17T05:11:04.848Z,51.216099
2023-04-17T05:12:04.846Z,51.216106
2023-04-17T05:13:04.845Z,51.216125
2023-04-17T05:14:04.826Z,51.216034
2023-04-17T05:15:05.813Z,51.215958
2023-04-17T05:16:04.878Z,51.216030
2023-04-17T05:17:04.829Z,51.216110
2023-04-17T05:18:04.834Z,51.216034
2023-04-17T05:19:04.798Z,51.215866
2023-04-17T05:20:04.791Z,51.216019
2023-04-17T05:21:04.833Z,51.216114
2023-04-17T05:22:04.789Z,51.216026
2023-04-17T05:23:04.796Z,51.216103
2023-04-17T05:24:04.773Z,51.216106
2023-04-17T05:25:04.752Z,51.216122
2023-04-17T05:26:04.751Z,51.216022
2023-04-17T05:27:04.754Z,51.216072
2023-04-17T05:28:04.747Z,51.215973
2023-04-17T05:29:04.721Z,51.216160
2023-04-17T05:30:04.747Z,51.216232
2023-04-17T05:31:04.708Z,51.216110
2023-04-17T05:32:04.902Z,51.216106
2023-04-17T05:33:04.768Z,51.216175
2023-04-17T05:34:04.706Z,51.216244
2023-04-17T05:35:04.682Z,51.216274
2023-04-17T05:36:04.692Z,51.216236
2023-04-17T05:37:04.681Z,51.216248
2023-04-17T05:38:04.688Z,51.216164
2023-04-17T05:39:04.663Z,51.216118
2023-04-17T05:40:04.653Z,51.216190
2023-04-17T05:41:04.639Z,51.216171
2023-04-17T05:42:04.631Z,51.216217
2023-04-17T05:43:04.674Z,51.216133
2023-04-17T05:44:04.620Z,51.216202
2023-04-17T05:45:04.625Z,51.216084
2023-04-17T05:46:04.742Z,51.216034
2023-04-17T05:47:04.608Z,51.216164
2023-04-17T05:48:04.693Z,51.216118
2023-04-17T05:49:04.597Z,51.216145
2023-04-17T05:50:04.604Z,51.216213
2023-04-17T05:51:04.605Z,51.216137
2023-04-17T05:52:04.579Z,51.216057
2023-04-17T05:53:04.577Z,51.216030
2023-04-17T05:54:04.588Z,51.216156
2023-04-17T05:55:04.560Z,51.216297
2023-04-17T05:56:04.572Z,51.216152
2023-04-17T05:57:04.570Z,51.216194
2023-04-17T05:58:22.131Z,51.216099
2023-04-17T05:59:06.541Z,51.216087
2023-04-17T06:00:04.573Z,51.216194
2023-04-17T06:01:04.544Z,51.216255
2023-04-17T06:02:04.636Z,51.216053
2023-04-17T06:03:04.741Z,51.216030
2023-04-17T06:04:04.684Z,51.215981
2023-04-17T06:05:04.629Z,51.216118
2023-04-17T06:06:04.525Z,51.216106
2023-04-17T06:07:04.543Z,51.216026
2023-04-17T06:08:04.497Z,51.216221
2023-04-17T06:09:04.467Z,51.216114
2023-04-17T06:10:04.567Z,51.216152
2023-04-17T06:11:04.456Z,51.216049
2023-04-17T06:12:04.446Z,51.216049
2023-04-17T06:13:04.445Z,51.216042
2023-04-17T06:14:04.450Z,51.216114
2023-04-17T06:15:04.444Z,51.216148
2023-04-17T06:16:04.424Z,51.216125
2023-04-17T06:17:04.488Z,51.215946
2023-04-17T06:18:04.506Z,51.215893
2023-04-17T06:19:04.423Z,51.216167
2023-04-17T06:20:04.408Z,51.216122
2023-04-17T06:21:04.405Z,51.216167
2023-04-17T06:22:04.408Z,51.216183
2023-04-17T06:23:04.381Z,51.216084
2023-04-17T06:24:04.386Z,51.216080
2023-04-17T06:25:04.400Z,51.215984
2023-04-17T06:26:04.364Z,51.216064
2023-04-17T06:27:04.352Z,51.216122
2023-04-17T06:28:05.344Z,51.216118
2023-04-17T06:29:04.344Z,51.216228
2023-04-17T06:30:04.348Z,51.216194
2023-04-17T06:31:04.360Z,51.216011
2023-04-17T06:32:04.334Z,51.216091
2023-04-17T06:33:04.383Z,51.216099
2023-04-17T06:34:04.311Z,51.216167
2023-04-17T06:35:04.334Z,51.216148
2023-04-17T06:36:04.302Z,51.215973
2023-04-17T06:37:04.296Z,51.215824
2023-04-17T06:38:04.281Z,51.215893
2023-04-17T06:39:04.301Z,51.215950
2023-04-17T06:40:04.290Z,51.216003
2023-04-17T06:41:04.264Z,51.216080
2023-04-17T06:42:04.271Z,51.216133
2023-04-17T06:43:04.249Z,51.216179
2023-04-17T06:44:04.258Z,51.216202
2023-04-17T06:45:04.253Z,51.216038
2023-04-17T06:46:04.287Z,51.216137
2023-04-17T06:47:04.249Z,51.216133
2023-04-17T06:48:04.279Z,51.216118
2023-04-17T06:49:04.236Z,51.216133
2023-04-17T06:50:04.220Z,51.216148
2023-04-17T06:51:04.256Z,51.216087
2023-04-17T06:52:04.221Z,51.216152
2023-04-17T06:53:04.240Z,51.216015
2023-04-17T06:54:04.214Z,51.215866
2023-04-17T06:55:04.207Z,51.215790
2023-04-17T06:56:04.931Z,51.215847
2023-04-17T06:57:04.165Z,51.215946
2023-04-17T06:58:04.216Z,51.215832
2023-04-17T06:59:04.221Z,51.215790
2023-04-17T07:00:04.149Z,51.216000
2023-04-17T07:01:04.135Z,51.215992
2023-04-17T07:02:04.234Z,51.216038
2023-04-17T07:03:04.223Z,51.216038
2023-04-17T07:04:04.166Z,51.216045
2023-04-17T07:05:04.116Z,51.216011
2023-04-17T07:06:04.429Z,51.215935
2023-04-17T07:07:04.127Z,51.215828
2023-04-17T07:08:04.094Z,51.215740
2023-04-17T07:09:04.094Z,51.216026
2023-04-17T07:10:04.076Z,51.215916
2023-04-17T07:11:04.096Z,51.216011
2023-04-17T07:12:04.649Z,51.216087
2023-04-17T07:13:04.079Z,51.216076
2023-04-17T07:14:04.071Z,51.216000
2023-04-17T07:15:04.057Z,51.215954
2023-04-17T07:16:04.144Z,51.216030
2023-04-17T07:17:04.028Z,51.216068
2023-04-17T07:18:04.126Z,51.216099
2023-04-17T07:19:04.009Z,51.216053
2023-04-17T07:20:04.011Z,51.216118
2023-04-17T07:21:04.025Z,51.216084
2023-04-17T07:22:04.036Z,51.216049
2023-04-17T07:23:04.007Z,51.216114
2023-04-17T07:24:04.006Z,51.216141
2023-04-17T07:25:03.980Z,51.216164
2023-04-17T07:26:04.009Z,51.216164
2023-04-17T07:27:04.003Z,51.216167
2023-04-17T07:28:04.588Z,51.216206
2023-04-17T07:29:04.960Z,51.215923
2023-04-17T07:30:03.943Z,51.215935
2023-04-17T07:31:04.925Z,51.215973
2023-04-17T07:32:03.977Z,51.216103
2023-04-17T07:33:03.955Z,51.216145
2023-04-17T07:34:03.943Z,51.216228
2023-04-17T07:35:03.931Z,51.216110
2023-04-17T07:36:04.038Z,51.216053
2023-04-17T07:37:03.897Z,51.215988
2023-04-17T07:38:03.897Z,51.215988
2023-04-17T07:39:03.886Z,51.216125
2023-04-17T07:40:03.876Z,51.216125
2023-04-17T07:41:03.901Z,51.216221
2023-04-17T07:42:03.869Z,51.216244
2023-04-17T07:43:03.906Z,51.216145
2023-04-17T07:44:03.856Z,51.216091
2023-04-17T07:45:03.854Z,51.216091
2023-04-17T07:46:03.878Z,51.216137
2023-04-17T07:47:03.881Z,51.216156
2023-04-17T07:48:03.873Z,51.216125
2023-04-17T07:49:03.863Z,51.216133
2023-04-17T07:50:03.816Z,51.216106
2023-04-17T07:51:03.841Z,51.216068
2023-04-17T07:52:03.785Z,51.216164
2023-04-17T07:53:03.795Z,51.216133
2023-04-17T07:54:03.788Z,51.216129
2023-04-17T07:55:03.772Z,51.216213
2023-04-17T07:56:03.811Z,51.216217
2023-04-17T07:57:03.745Z,51.216286
2023-04-17T07:58:03.758Z,51.216125
2023-04-17T07:59:03.744Z,51.216019
2023-04-17T08:00:03.720Z,51.216114
2023-04-17T08:01:03.713Z,51.216221
2023-04-17T08:02:03.786Z,51.216270
2023-04-17T08:03:03.953Z,51.216274
2023-04-17T08:04:03.913Z,51.216263
2023-04-17T08:05:03.783Z,51.216583
2023-04-17T08:06:03.678Z,51.216438
2023-04-17T08:07:03.683Z,51.216503
2023-04-17T08:08:03.684Z,51.216618
2023-04-17T08:09:03.670Z,51.216599
2023-04-17T08:10:03.663Z,51.216576
2023-04-17T08:11:03.670Z,51.216515
2023-04-17T08:12:04.449Z,51.216450
2023-04-17T08:13:03.641Z,51.216454
2023-04-17T08:14:03.656Z,51.216454
2023-04-17T08:15:03.630Z,51.216454
2023-04-17T08:16:03.655Z,51.216454
2023-04-17T08:17:03.689Z,51.216347
2023-04-17T08:18:03.676Z,51.216347
2023-04-17T08:19:03.611Z,51.216347
2023-04-17T08:20:03.624Z,51.216286
2023-04-17T08:21:03.628Z,51.216251
2023-04-17T08:22:03.590Z,51.216118
2023-04-17T08:23:03.575Z,51.216160
2023-04-17T08:24:03.572Z,51.216057
2023-04-17T08:25:03.584Z,51.216373
2023-04-17T08:26:03.557Z,51.216312
2023-04-17T08:27:03.582Z,51.216057
2023-04-17T08:28:03.578Z,51.216087
2023-04-17T08:29:03.545Z,51.216225
2023-04-17T08:30:03.543Z,51.216434
2023-04-17T08:31:03.594Z,51.216469
2023-04-17T08:32:13.920Z,51.216274
2023-04-17T08:33:05.568Z,51.216095
2023-04-17T08:34:13.708Z,51.216042
2023-04-17T08:35:05.521Z,51.216248
2023-04-17T08:36:04.752Z,51.216103
2023-04-17T08:37:04.490Z,51.215969
2023-04-17T08:38:03.490Z,51.216095
2023-04-17T08:39:03.475Z,51.216084
2023-04-17T08:40:03.486Z,51.216160
2023-04-17T08:41:03.541Z,51.216259
2023-04-17T08:42:03.480Z,51.216095
2023-04-17T08:43:03.507Z,51.216190
2023-04-17T08:44:03.451Z,51.216057
2023-04-17T08:45:03.439Z,51.216118
2023-04-17T08:46:03.498Z,51.216080
2023-04-17T08:47:03.432Z,51.216293
2023-04-17T08:48:03.478Z,51.216148
2023-04-17T08:49:03.413Z,51.216251
2023-04-17T08:50:03.418Z,51.216293
2023-04-17T08:51:03.448Z,51.216335
2023-04-17T08:52:03.398Z,51.216408
2023-04-17T08:53:03.382Z,51.216290
2023-04-17T08:54:03.378Z,51.215939
2023-04-17T08:55:03.366Z,51.215939
2023-04-17T08:56:03.975Z,51.216061
2023-04-17T08:57:04.387Z,51.216049
2023-04-17T08:58:03.496Z,51.215820
2023-04-17T08:59:03.356Z,51.216095
2023-04-17T09:00:03.337Z,51.216145
2023-04-17T09:01:04.345Z,51.216259
2023-04-17T09:02:03.612Z,51.216274
2023-04-17T09:03:03.478Z,51.216331
2023-04-17T09:04:03.492Z,51.216064
2023-04-17T09:05:03.424Z,51.216026
2023-04-17T09:06:03.303Z,51.216038
2023-04-17T09:07:03.294Z,51.216030
2023-04-17T09:08:03.300Z,51.216167
2023-04-17T09:09:03.295Z,51.216198
2023-04-17T09:10:03.280Z,51.216049
2023-04-17T09:11:03.286Z,51.215748
2023-04-17T09:12:03.271Z,51.215687
2023-04-17T09:13:03.297Z,51.215916
2023-04-17T09:14:03.257Z,51.215939
2023-04-17T09:15:03.251Z,51.216206
2023-04-17T09:16:03.315Z,51.216183
2023-04-17T09:17:03.262Z,51.216255
2023-04-17T09:18:03.357Z,51.216095
2023-04-17T09:19:03.221Z,51.216042
2023-04-17T09:20:03.208Z,51.216110
2023-04-17T09:21:03.206Z,51.216084
2023-04-17T09:22:03.201Z,51.216022
2023-04-17T09:23:03.189Z,51.216030
2023-04-17T09:24:04.194Z,51.216057
2023-04-17T09:25:03.188Z,51.215996
2023-04-17T09:26:03.181Z,51.216072
2023-04-17T09:27:03.177Z,51.216164
2023-04-17T09:28:03.173Z,51.216087
2023-04-17T09:29:03.161Z,51.216011
2023-04-17T09:30:03.156Z,51.216053
2023-04-17T09:31:03.227Z,51.216030
2023-04-17T09:32:03.238Z,51.216125
2023-04-17T09:33:03.162Z,51.216167
2023-04-17T09:34:03.143Z,51.216084
2023-04-17T09:35:03.120Z,51.216091
2023-04-17T09:36:04.124Z,51.216076
2023-04-17T09:37:03.234Z,51.216152
2023-04-17T09:38:03.119Z,51.216187
2023-04-17T09:39:03.090Z,51.216156
2023-04-17T09:40:03.094Z,51.216145
2023-04-17T09:41:03.100Z,51.216095
2023-04-17T09:42:03.804Z,51.216122
2023-04-17T09:43:04.081Z,51.216183
2023-04-17T09:44:03.065Z,51.216133
2023-04-17T09:45:03.072Z,51.216148
2023-04-17T09:46:03.799Z,51.216137
2023-04-17T09:47:03.055Z,51.216076
2023-04-17T09:48:03.110Z,51.216099
2023-04-17T09:49:03.036Z,51.216175
2023-04-17T09:50:03.123Z,51.216236
2023-04-17T09:51:03.084Z,51.216305
2023-04-17T09:52:03.015Z,51.216221
2023-04-17T09:53:03.041Z,51.216007
2023-04-17T09:54:03.017Z,51.215996
2023-04-17T09:55:03.003Z,51.216076
2023-04-17T09:56:02.986Z,51.216137
2023-04-17T09:57:03.083Z,51.216103
2023-04-17T09:58:02.993Z,51.215950
2023-04-17T09:59:03.003Z,51.216003
2023-04-17T10:00:02.996Z,51.216110
2023-04-17T10:01:03.211Z,51.216164
2023-04-17T10:02:03.126Z,51.215935
2023-04-17T10:03:03.142Z,51.216034
2023-04-17T10:04:03.138Z,51.216080
2023-04-17T10:05:02.933Z,51.216129
2023-04-17T10:06:02.964Z,51.216053
2023-04-17T10:07:02.949Z,51.216080
2023-04-17T10:08:02.945Z,51.216061
2023-04-17T10:09:02.909Z,51.216084
2023-04-17T10:10:02.938Z,51.216167
2023-04-17T10:11:02.895Z,51.216183
2023-04-17T10:12:02.888Z,51.216133
2023-04-17T10:13:02.901Z,51.216110
2023-04-17T10:14:02.911Z,51.216053
2023-04-17T10:15:02.884Z,51.216007
2023-04-17T10:16:02.930Z,51.216038
2023-04-17T10:17:02.873Z,51.216030
2023-04-17T10:18:02.864Z,51.216038
2023-04-17T10:19:02.853Z,51.216240
2023-04-17T10:20:02.838Z,51.216145
2023-04-17T10:21:03.712Z,51.216103
2023-04-17T10:22:02.843Z,51.216022
2023-04-17T10:23:02.837Z,51.216106
2023-04-17T10:24:02.831Z,51.216137
2023-04-17T10:25:02.869Z,51.216042
2023-04-17T10:26:02.813Z,51.216160
2023-04-17T10:27:02.805Z,51.216095
2023-04-17T10:28:02.803Z,51.216118
2023-04-17T10:29:02.788Z,51.216103
2023-04-17T10:30:02.843Z,51.216103
2023-04-17T10:31:02.803Z,51.216099
2023-04-17T10:32:02.796Z,51.216198
2023-04-17T10:33:02.821Z,51.216145
2023-04-17T10:34:02.798Z,51.216156
2023-04-17T10:35:02.788Z,51.216156
2023-04-17T10:36:02.751Z,51.216103
2023-04-17T10:37:02.927Z,51.216061
2023-04-17T10:38:02.744Z,51.216064
2023-04-17T10:39:02.729Z,51.216148
2023-04-17T10:40:02.736Z,51.216084
2023-04-17T10:41:02.783Z,51.216057
2023-04-17T10:42:02.708Z,51.216114
2023-04-17T10:43:02.711Z,51.216110
2023-04-17T10:44:02.703Z,51.216106
2023-04-17T10:45:02.691Z,51.216110
2023-04-17T10:46:02.981Z,51.216278
2023-04-17T10:47:02.702Z,51.216244
2023-04-17T10:48:02.755Z,51.216251
2023-04-17T10:49:02.668Z,51.216293
2023-04-17T10:50:02.679Z,51.216232
2023-04-17T10:51:02.693Z,51.216133
2023-04-17T10:52:02.665Z,51.216198
2023-04-17T10:53:02.655Z,51.216114
2023-04-17T10:54:02.649Z,51.216148
2023-04-17T10:55:02.634Z,51.216034
2023-04-17T10:56:02.638Z,51.216061
2023-04-17T10:57:02.665Z,51.216145
2023-04-17T10:58:02.616Z,51.216118
2023-04-17T10:59:02.621Z,51.216221
2023-04-17T11:00:02.621Z,51.216389
2023-04-17T11:01:02.742Z,51.216408
2023-04-17T11:02:02.764Z,51.216412
2023-04-17T11:03:02.760Z,51.216343
2023-04-17T11:04:02.630Z,51.216335
2023-04-17T11:05:02.634Z,51.216335
2023-04-17T11:06:02.572Z,51.216152
2023-04-17T11:07:02.705Z,51.216129
2023-04-17T11:08:03.586Z,51.216278
2023-04-17T11:09:02.563Z,51.216228
2023-04-17T11:10:02.581Z,51.216236
2023-04-17T11:11:02.559Z,51.216228
2023-04-17T11:12:02.577Z,51.216415
2023-04-17T11:13:02.574Z,51.216461
2023-04-17T11:14:02.535Z,51.216248
2023-04-17T11:15:02.531Z,51.216175
2023-04-17T11:16:02.516Z,51.216003
2023-04-17T11:17:02.623Z,51.216015
2023-04-17T11:18:02.616Z,51.215965
2023-04-17T11:19:02.506Z,51.216003
2023-04-17T11:20:02.529Z,51.216061
2023-04-17T11:21:02.492Z,51.215797
2023-04-17T11:22:02.486Z,51.215820
2023-04-17T11:23:02.488Z,51.215977
2023-04-17T11:24:02.474Z,51.216030